Time;durP1;ratioP1;P1;durP2;ratioP2;P2;SDS_P1;SDS_P2;PMS_P1;PMS_P2;Temp;Humidity;BMP_temperature;BMP_pressure;BME280_temperature;BME280_humidity;BME280_pressure;Samples;Min_cycle;Max_cycle;Signal;HPM_P1;HPM_P2
2023/08/21 00:01:46;;;;;;;4.28;3.70;;;20.80;80.00;;;;;;5062555;28;20572;-77
2023/08/21 00:04:12;;;;;;;5.07;4.22;;;20.80;79.30;;;;;;5060196;28;20086;-75
2023/08/21 00:06:38;;;;;;;4.35;3.60;;;20.80;79.90;;;;;;5062755;28;20029;-74
2023/08/21 00:09:04;;;;;;;4.25;3.80;;;20.80;79.60;;;;;;5061725;28;20598;-74
2023/08/21 00:11:30;;;;;;;4.60;4.20;;;20.80;78.60;;;;;;5063058;28;20090;-74
2023/08/21 00:13:55;;;;;;;4.65;4.25;;;20.70;78.50;;;;;;5063052;28;20106;-74
2023/08/21 00:16:21;;;;;;;5.20;4.50;;;20.70;79.00;;;;;;5062290;28;20040;-75
2023/08/21 00:18:47;;;;;;;4.90;4.40;;;20.60;77.80;;;;;;5062537;28;20137;-74
2023/08/21 00:21:13;;;;;;;4.63;4.20;;;20.60;78.20;;;;;;5061213;28;20119;-74
2023/08/21 00:23:39;;;;;;;5.30;4.32;;;20.60;77.90;;;;;;5062407;28;20064;-75
2023/08/21 00:26:05;;;;;;;6.15;4.45;;;20.50;78.60;;;;;;5065979;28;20424;-74
2023/08/21 00:28:33;;;;;;;5.15;4.63;;;20.50;78.90;;;;;;5061623;28;20041;-75
2023/08/21 00:31:06;;;;;;;4.68;4.28;;;20.40;79.10;;;;;;5062262;28;20037;-76
2023/08/21 00:33:32;;;;;;;6.15;4.82;;;20.50;79.90;;;;;;5063110;28;20510;-74
2023/08/21 00:35:58;;;;;;;5.30;4.80;;;20.40;79.80;;;;;;5062499;28;20021;-76
2023/08/21 00:38:24;;;;;;;5.45;4.57;;;20.40;80.00;;;;;;5060176;28;20041;-75
2023/08/21 00:40:51;;;;;;;5.55;5.05;;;20.30;80.20;;;;;;5060396;28;20517;-75
2023/08/21 00:43:17;;;;;;;5.95;4.95;;;20.40;80.30;;;;;;5060686;28;20036;-75
2023/08/21 00:45:45;;;;;;;5.38;4.82;;;20.40;80.80;;;;;;5062395;28;20104;-75
2023/08/21 00:48:12;;;;;;;6.97;4.88;;;20.40;80.20;;;;;;5065653;28;20142;-75
2023/08/21 00:50:41;;;;;;;5.55;4.97;;;20.30;80.10;;;;;;5061033;28;20431;-75
2023/08/21 00:53:07;;;;;;;8.40;4.78;;;20.30;80.50;;;;;;5063592;28;20029;-76
2023/08/21 00:55:34;;;;;;;5.68;4.75;;;20.30;80.30;;;;;;5075843;28;20077;-75
2023/08/21 00:58:03;;;;;;;6.55;5.10;;;20.30;80.50;;;;;;5065807;28;20127;-75
2023/08/21 01:00:29;;;;;;;5.88;4.97;;;20.30;80.60;;;;;;5058770;28;20029;-76
2023/08/21 01:02:55;;;;;;;5.97;4.80;;;20.30;81.00;;;;;;5062408;28;20029;-74
2023/08/21 01:05:23;;;;;;;6.32;4.97;;;20.20;80.80;;;;;;5060657;28;20029;-75
2023/08/21 01:08:11;;;;;;;5.97;5.18;;;20.20;80.30;;;;;;5061266;28;20064;-75
2023/08/21 01:10:57;;;;;;;5.88;5.22;;;20.20;80.80;;;;;;5061248;28;20029;-75
2023/08/21 01:13:47;;;;;;;5.20;4.80;;;20.20;80.90;;;;;;5061876;28;20515;-74
2023/08/21 01:16:14;;;;;;;6.68;4.93;;;20.10;80.80;;;;;;5063981;28;20036;-75
2023/08/21 01:18:41;;;;;;;5.53;5.03;;;20.10;80.50;;;;;;5060671;28;20573;-75
2023/08/21 01:21:08;;;;;;;5.38;4.82;;;20.10;81.20;;;;;;5077325;28;20039;-75
2023/08/21 01:23:37;;;;;;;6.47;4.80;;;20.10;81.00;;;;;;5043520;28;20557;-76
2023/08/21 01:26:04;;;;;;;5.68;4.80;;;20.20;81.20;;;;;;5061680;28;20029;-76
2023/08/21 01:28:32;;;;;;;4.63;4.22;;;20.10;81.30;;;;;;5061516;28;20040;-76
2023/08/21 01:31:08;;;;;;;5.57;4.95;;;20.10;81.10;;;;;;5063743;28;20055;-75
2023/08/21 01:33:42;;;;;;;5.47;4.93;;;20.10;81.20;;;;;;5062165;28;20036;-75
2023/08/21 01:36:08;;;;;;;5.95;5.45;;;20.10;81.30;;;;;;5077682;28;20067;-75
2023/08/21 01:38:35;;;;;;;6.10;5.45;;;20.10;80.90;;;;;;5062355;28;20040;-76
2023/08/21 01:41:02;;;;;;;6.65;5.13;;;20.10;81.20;;;;;;5059531;28;20059;-76
2023/08/21 01:43:28;;;;;;;8.25;4.75;;;20.10;81.20;;;;;;5061185;28;20040;-74
2023/08/21 01:45:55;;;;;;;5.50;5.00;;;20.10;81.20;;;;;;5062222;28;20041;-77
2023/08/21 01:48:21;;;;;;;5.80;5.18;;;20.10;81.30;;;;;;5061688;28;20024;-76
2023/08/21 01:50:47;;;;;;;5.60;5.10;;;20.00;81.20;;;;;;5059247;28;20040;-76
2023/08/21 01:53:13;;;;;;;5.57;5.07;;;20.00;81.40;;;;;;5061833;28;20063;-75
2023/08/21 01:55:39;;;;;;;6.63;5.43;;;20.00;81.60;;;;;;5059973;28;20532;-76
2023/08/21 01:58:04;;;;;;;7.85;5.20;;;20.00;81.60;;;;;;5058659;28;20139;-76
2023/08/21 02:00:30;;;;;;;5.55;5.05;;;20.00;81.90;;;;;;5058805;28;20040;-76
2023/08/21 02:02:56;;;;;;;6.03;5.43;;;20.00;81.70;;;;;;5063332;28;20058;-75
2023/08/21 02:05:22;;;;;;;5.63;5.13;;;20.00;81.80;;;;;;5059345;28;20100;-76
2023/08/21 02:07:48;;;;;;;5.82;5.22;;;20.00;81.60;;;;;;5062427;28;20162;-76
2023/08/21 02:10:14;;;;;;;5.30;4.68;;;20.00;82.10;;;;;;5059511;28;20511;-75
2023/08/21 02:12:40;;;;;;;5.13;4.57;;;20.00;82.00;;;;;;5061961;28;20060;-76
2023/08/21 02:15:07;;;;;;;6.10;4.90;;;20.00;81.90;;;;;;5059269;28;20033;-76
2023/08/21 02:17:33;;;;;;;5.82;5.20;;;19.90;81.70;;;;;;5059257;28;20040;-76
2023/08/21 02:19:59;;;;;;;5.65;4.65;;;19.90;81.70;;;;;;5059181;28;20048;-76
2023/08/21 02:22:25;;;;;;;5.47;4.97;;;19.90;82.00;;;;;;5059841;28;20044;-76
2023/08/21 02:24:50;;;;;;;6.88;5.47;;;19.90;81.90;;;;;;5060862;28;20041;-76
2023/08/21 02:27:17;;;;;;;6.30;5.22;;;20.00;81.90;;;;;;5060020;28;20079;-75
2023/08/21 02:29:43;;;;;;;8.43;4.88;;;19.90;82.00;;;;;;5059300;28;20028;-76
2023/08/21 02:32:09;;;;;;;5.50;4.90;;;20.00;82.20;;;;;;5060896;28;20456;-75
2023/08/21 02:34:35;;;;;;;5.00;4.50;;;20.00;82.10;;;;;;5062624;28;21520;-75
2023/08/21 02:37:02;;;;;;;7.22;4.60;;;20.00;82.00;;;;;;5059949;28;20444;-76
2023/08/21 02:39:28;;;;;;;5.30;4.78;;;20.00;81.90;;;;;;5059413;28;20075;-76
2023/08/21 02:41:54;;;;;;;4.85;4.32;;;20.00;81.40;;;;;;5059316;28;20064;-76
2023/08/21 02:44:20;;;;;;;5.88;4.53;;;20.00;81.50;;;;;;5075488;28;20036;-76
2023/08/21 02:46:47;;;;;;;6.72;4.53;;;20.00;81.40;;;;;;5058103;28;20475;-76
2023/08/21 02:49:12;;;;;;;4.53;4.13;;;19.90;81.00;;;;;;5058648;28;20123;-76
2023/08/21 02:51:39;;;;;;;5.82;4.30;;;19.90;81.40;;;;;;5057108;28;20514;-78
2023/08/21 02:54:05;;;;;;;6.05;4.93;;;19.90;81.00;;;;;;5059848;28;20036;-77
2023/08/21 02:56:31;;;;;;;5.53;4.30;;;19.90;81.10;;;;;;5059632;28;20033;-77
2023/08/21 02:58:56;;;;;;;6.68;5.15;;;19.80;81.10;;;;;;5056914;28;20330;-74
2023/08/21 03:01:22;;;;;;;4.38;3.97;;;19.80;80.70;;;;;;5058885;28;20028;-77
2023/08/21 03:03:48;;;;;;;8.88;4.30;;;19.80;80.80;;;;;;5057740;28;20037;-76
2023/08/21 03:06:16;;;;;;;6.63;4.72;;;19.80;80.70;;;;;;5060147;28;20529;-76
2023/08/21 03:08:43;;;;;;;4.80;4.07;;;19.80;80.90;;;;;;5058336;28;20045;-76
2023/08/21 03:11:09;;;;;;;5.57;4.05;;;19.70;80.80;;;;;;5058008;28;20043;-76
2023/08/21 03:13:35;;;;;;;5.80;3.92;;;19.80;81.00;;;;;;5060279;28;20053;-76
2023/08/21 03:16:01;;;;;;;5.85;3.85;;;19.80;80.80;;;;;;5063288;28;20047;-76
2023/08/21 03:18:32;;;;;;;4.20;3.88;;;19.80;80.50;;;;;;5061950;28;20059;-77
2023/08/21 03:20:58;;;;;;;4.88;4.10;;;19.70;80.30;;;;;;5058293;28;20137;-76
2023/08/21 03:23:24;;;;;;;5.68;3.83;;;19.70;80.70;;;;;;5039786;28;20044;-76
2023/08/21 03:25:53;;;;;;;6.32;4.05;;;19.70;80.70;;;;;;5058115;28;20032;-77
2023/08/21 03:28:19;;;;;;;4.93;3.88;;;19.70;80.10;;;;;;5057902;28;20120;-76
2023/08/21 03:30:45;;;;;;;5.90;4.10;;;19.70;80.60;;;;;;5062055;28;20029;-76
2023/08/21 03:33:11;;;;;;;4.13;3.72;;;19.60;80.40;;;;;;5060462;28;20035;-76
2023/08/21 03:35:37;;;;;;;5.60;3.88;;;19.60;80.50;;;;;;5058581;28;20082;-76
2023/08/21 03:38:03;;;;;;;4.00;3.70;;;19.60;80.20;;;;;;5058429;28;20033;-76
2023/08/21 03:40:39;;;;;;;3.92;3.42;;;19.60;80.50;;;;;;5057471;28;20029;-76
2023/08/21 03:43:05;;;;;;;5.53;3.78;;;19.60;80.30;;;;;;5057505;28;20123;-76
2023/08/21 03:45:31;;;;;;;4.28;3.55;;;19.60;79.90;;;;;;5058517;28;20049;-76
2023/08/21 03:47:57;;;;;;;4.50;3.72;;;19.60;80.40;;;;;;5059368;28;20056;-77
2023/08/21 03:50:23;;;;;;;4.68;3.42;;;19.60;80.50;;;;;;5073128;28;20052;-76
2023/08/21 03:52:49;;;;;;;5.13;3.08;;;19.50;80.10;;;;;;5058129;28;20037;-77
2023/08/21 03:55:15;;;;;;;3.42;3.13;;;19.50;79.60;;;;;;5061893;28;20044;-77
2023/08/21 03:57:42;;;;;;;8.55;3.65;;;19.50;80.20;;;;;;5061982;28;20117;-77
2023/08/21 04:00:09;;;;;;;3.55;3.03;;;19.50;80.30;;;;;;5058374;28;20075;-77
2023/08/21 04:02:41;;;;;;;4.75;3.50;;;19.50;80.00;;;;;;5056733;28;20041;-75
2023/08/21 04:05:07;;;;;;;2.97;2.72;;;19.50;80.10;;;;;;5060415;28;20060;-75
2023/08/21 04:07:34;;;;;;;2.53;2.33;;;19.50;80.20;;;;;;5059287;28;20036;-76
2023/08/21 04:10:00;;;;;;;2.90;2.65;;;19.60;80.50;;;;;;5060966;28;20177;-73
2023/08/21 04:12:26;;;;;;;3.67;3.13;;;19.50;79.80;;;;;;5057040;28;20119;-74
2023/08/21 04:14:52;;;;;;;4.10;2.60;;;19.60;80.30;;;;;;5061060;28;20076;-75
2023/08/21 04:17:22;;;;;;;2.70;2.50;;;19.60;79.80;;;;;;5061852;28;20146;-74
2023/08/21 04:19:48;;;;;;;4.10;2.67;;;19.60;79.40;;;;;;5058503;28;20063;-73
2023/08/21 04:22:16;;;;;;;5.05;2.45;;;19.60;79.50;;;;;;5061141;28;20080;-74
2023/08/21 04:24:43;;;;;;;6.22;3.05;;;19.60;79.50;;;;;;5060274;28;20107;-75
2023/08/21 04:27:09;;;;;;;2.67;2.33;;;19.60;79.20;;;;;;5057312;28;20118;-77
2023/08/21 04:29:39;;;;;;;2.45;2.25;;;19.70;79.30;;;;;;5064361;28;20039;-85
2023/08/21 04:32:06;;;;;;;2.40;2.20;;;19.80;79.20;;;;;;5061594;28;20033;-85
2023/08/21 04:34:33;;;;;;;2.28;2.05;;;19.90;79.20;;;;;;5046276;28;20427;-87
2023/08/21 04:36:59;;;;;;;2.83;2.00;;;20.10;79.10;;;;;;5049098;28;20052;-90
2023/08/21 04:39:26;;;;;;;3.42;2.20;;;20.30;79.00;;;;;;5032824;28;20036;-85
2023/08/21 04:41:53;;;;;;;1.98;1.70;;;20.50;78.60;;;;;;5051100;28;20024;-89
2023/08/21 04:44:19;;;;;;;2.95;2.00;;;20.70;77.80;;;;;;5048454;28;20041;-83
2023/08/21 04:46:51;;;;;;;3.05;1.58;;;20.90;77.10;;;;;;5065520;28;20032;-86
2023/08/21 04:49:18;;;;;;;2.22;2.05;;;21.10;77.00;;;;;;5045730;28;20487;-77
2023/08/21 04:51:44;;;;;;;10.05;2.33;;;21.30;76.50;;;;;;5062702;28;20041;-77
2023/08/21 04:54:10;;;;;;;3.20;1.67;;;21.50;76.20;;;;;;5061807;28;20044;-78
2023/08/21 04:56:36;;;;;;;2.38;1.70;;;21.70;75.30;;;;;;5065728;28;20041;-78
2023/08/21 04:59:02;;;;;;;2.50;1.60;;;21.90;74.90;;;;;;5065216;28;20500;-79
2023/08/21 05:01:30;;;;;;;1.77;1.50;;;22.10;74.20;;;;;;5061316;28;20040;-78
2023/08/21 05:03:58;;;;;;;2.92;1.50;;;22.30;73.40;;;;;;5064521;28;20109;-78
2023/08/21 05:06:24;;;;;;;2.63;1.70;;;22.40;73.30;;;;;;5064226;28;20056;-78
2023/08/21 05:08:51;;;;;;;2.28;1.70;;;22.60;72.60;;;;;;5066265;28;20488;-81
2023/08/21 05:11:17;;;;;;;1.63;1.50;;;22.80;71.60;;;;;;5064660;28;20098;-82
2023/08/21 05:13:43;;;;;;;1.50;1.40;;;23.00;69.70;;;;;;5062871;28;20041;-79
2023/08/21 05:16:12;;;;;;;1.10;1.10;;;23.10;69.90;;;;;;5065858;28;20040;-79
2023/08/21 05:18:40;;;;;;;2.55;1.60;;;23.30;69.80;;;;;;5048777;28;20032;-88
2023/08/21 05:21:06;;;;;;;2.17;1.40;;;23.50;69.80;;;;;;5049149;28;20029;-85
2023/08/21 05:23:32;;;;;;;2.53;1.52;;;23.70;69.70;;;;;;5066396;28;20695;-86
2023/08/21 05:26:04;;;;;;;1.65;1.55;;;23.90;68.50;;;;;;5065735;28;20127;-93
2023/08/21 05:28:31;;;;;;;2.33;1.25;;;24.20;67.30;;;;;;5033693;28;20560;-86
2023/08/21 05:30:58;;;;;;;2.65;1.40;;;24.40;66.30;;;;;;5032342;28;20048;-88
2023/08/21 05:33:24;;;;;;;2.03;1.52;;;24.70;65.60;;;;;;5060960;28;20052;-90
2023/08/21 05:35:50;;;;;;;2.10;1.35;;;24.90;65.60;;;;;;5050294;28;20059;-92
2023/08/21 05:38:16;;;;;;;2.80;1.10;;;25.10;65.70;;;;;;5066979;28;20163;-91
2023/08/21 05:40:43;;;;;;;1.30;1.20;;;25.40;65.20;;;;;;5048561;28;20033;-94
2023/08/21 05:43:10;;;;;;;1.38;1.27;;;25.60;65.40;;;;;;5049710;28;20049;-92
2023/08/21 05:45:39;;;;;;;1.38;1.27;;;25.80;65.00;;;;;;5050345;28;20487;-93
2023/08/21 05:48:07;;;;;;;1.13;1.00;;;25.90;63.00;;;;;;5067615;28;20033;-93
2023/08/21 05:50:33;;;;;;;2.00;1.00;;;26.10;62.50;;;;;;5049733;28;20063;-90
2023/08/21 05:53:01;;;;;;;3.13;1.33;;;26.30;60.90;;;;;;5062024;28;20538;-89
2023/08/21 05:55:27;;;;;;;1.33;1.23;;;26.30;60.30;;;;;;5045523;28;20094;-90
2023/08/21 05:57:53;;;;;;;2.70;1.23;;;26.40;61.20;;;;;;5050630;28;20024;-94
2023/08/21 06:00:20;;;;;;;2.70;1.35;;;26.50;60.20;;;;;;5034460;28;20041;-93
2023/08/21 06:02:46;;;;;;;1.48;1.00;;;26.60;60.50;;;;;;5045518;28;20030;-89
2023/08/21 06:05:33;;;;;;;1.38;1.27;;;26.80;60.90;;;;;;5086870;22;20045;-93
2023/08/21 06:07:59;;;;;;;1.30;1.10;;;26.80;59.90;;;;;;5043412;28;20041;-93
2023/08/21 06:10:25;;;;;;;2.58;1.35;;;26.70;60.70;;;;;;5016239;28;20034;-88
2023/08/21 06:12:51;;;;;;;1.88;1.35;;;26.70;61.20;;;;;;5033659;28;20536;-91
2023/08/21 06:15:17;;;;;;;1.13;1.08;;;26.60;59.70;;;;;;5031264;28;20033;-83
2023/08/21 06:17:43;;;;;;;1.30;1.00;;;26.70;60.80;;;;;;5031842;28;20049;-87
2023/08/21 06:20:09;;;;;;;1.40;1.23;;;26.70;58.60;;;;;;5017039;28;20528;-86
2023/08/21 06:22:36;;;;;;;1.50;1.40;;;26.60;57.30;;;;;;5042872;28;20132;-85
2023/08/21 06:25:02;;;;;;;1.85;1.25;;;26.70;56.80;;;;;;5015909;28;20116;-89
2023/08/21 06:27:28;;;;;;;1.45;1.25;;;26.70;56.90;;;;;;5001192;28;20041;-91
2023/08/21 06:29:54;;;;;;;1.52;1.20;;;26.70;57.60;;;;;;5015722;28;20138;-80
2023/08/21 06:32:20;;;;;;;1.60;1.27;;;26.80;57.90;;;;;;5014448;28;20156;-83
2023/08/21 06:34:46;;;;;;;3.42;1.33;;;26.90;57.30;;;;;;5015469;28;20034;-78
2023/08/21 06:37:12;;;;;;;1.92;1.23;;;26.80;55.40;;;;;;5013477;28;20461;-78
2023/08/21 06:39:38;;;;;;;1.85;1.38;;;26.60;55.80;;;;;;5001616;28;20124;-78
2023/08/21 06:42:05;;;;;;;1.80;1.10;;;26.40;55.30;;;;;;5031248;28;20083;-78
2023/08/21 06:44:39;;;;;;;1.40;1.27;;;26.30;55.40;;;;;;5029867;28;20120;-77
2023/08/21 06:47:06;;;;;;;1.55;1.45;;;26.10;54.00;;;;;;5013929;28;20057;-78
2023/08/21 06:49:33;;;;;;;2.10;1.55;;;25.90;54.40;;;;;;5016575;28;20460;-79
2023/08/21 06:51:59;;;;;;;1.77;1.58;;;25.60;54.90;;;;;;5013704;28;20038;-78
2023/08/21 06:54:25;;;;;;;2.28;1.40;;;25.40;55.60;;;;;;5015006;28;20030;-80
2023/08/21 06:56:51;;;;;;;1.60;1.50;;;25.40;56.70;;;;;;5015502;28;20030;-79
2023/08/21 06:59:17;;;;;;;5.97;1.50;;;25.50;57.10;;;;;;5012848;28;20044;-81
2023/08/21 07:01:43;;;;;;;1.50;1.40;;;25.40;56.60;;;;;;5015570;28;20040;-80
2023/08/21 07:04:09;;;;;;;2.30;1.63;;;25.20;57.10;;;;;;5012174;28;20076;-79
2023/08/21 07:06:35;;;;;;;3.58;1.20;;;25.00;57.50;;;;;;5014441;28;20025;-80
2023/08/21 07:09:02;;;;;;;2.70;1.73;;;24.90;57.30;;;;;;5015540;28;20567;-81
2023/08/21 07:11:28;;;;;;;3.13;1.55;;;24.70;58.20;;;;;;5014791;28;20092;-80
2023/08/21 07:13:55;;;;;;;1.55;1.45;;;24.80;58.70;;;;;;5013785;28;20037;-79
2023/08/21 07:16:21;;;;;;;2.30;1.58;;;24.80;59.10;;;;;;5014236;28;20048;-79
2023/08/21 07:18:47;;;;;;;3.85;1.48;;;24.70;58.70;;;;;;5014140;28;20049;-79
2023/08/21 07:21:13;;;;;;;1.70;1.40;;;24.70;59.30;;;;;;5012560;28;20620;-78
2023/08/21 07:23:39;;;;;;;1.83;1.33;;;24.70;59.30;;;;;;5013846;28;20049;-77
2023/08/21 07:26:07;;;;;;;3.38;1.30;;;24.70;58.40;;;;;;5014383;28;20041;-78
2023/08/21 07:28:33;;;;;;;2.10;1.58;;;24.70;56.30;;;;;;5011695;28;20034;-78
2023/08/21 07:31:00;;;;;;;1.48;1.38;;;24.80;57.10;;;;;;5011934;28;20486;-80
2023/08/21 07:33:27;;;;;;;1.40;1.30;;;24.90;58.50;;;;;;5014235;28;20116;-79
2023/08/21 07:36:01;;;;;;;1.90;1.15;;;25.00;58.60;;;;;;5014686;28;20025;-79
2023/08/21 07:38:27;;;;;;;2.67;1.52;;;25.10;57.60;;;;;;5012754;28;20504;-78
2023/08/21 07:41:09;;;;;;;1.88;1.10;;;25.00;56.30;;;;;;5014307;28;20079;-79
2023/08/21 07:43:43;;;;;;;1.33;1.10;;;24.90;57.10;;;;;;5015100;28;20069;-79
2023/08/21 07:46:13;;;;;;;1.55;1.25;;;24.90;56.90;;;;;;5012720;28;20485;-78
2023/08/21 07:48:39;;;;;;;1.70;1.30;;;25.00;57.20;;;;;;5013445;28;20421;-78
2023/08/21 07:51:05;;;;;;;1.40;1.25;;;25.10;58.00;;;;;;5015130;28;20037;-77
2023/08/21 07:53:31;;;;;;;1.60;1.13;;;25.10;57.00;;;;;;5013732;28;20068;-79
2023/08/21 07:55:58;;;;;;;1.58;1.20;;;25.10;55.20;;;;;;5014777;28;20030;-79
2023/08/21 07:58:24;;;;;;;1.73;1.38;;;25.00;55.30;;;;;;5014117;28;20049;-77
2023/08/21 08:00:50;;;;;;;1.40;1.30;;;25.00;55.00;;;;;;5013418;28;20081;-79
2023/08/21 08:03:16;;;;;;;2.10;1.17;;;25.00;55.50;;;;;;5013895;28;20087;-77
2023/08/21 08:05:42;;;;;;;2.17;1.33;;;25.10;56.30;;;;;;5009590;28;20420;-77
2023/08/21 08:08:08;;;;;;;2.58;1.00;;;25.20;58.60;;;;;;5012443;28;20033;-78
2023/08/21 08:10:40;;;;;;;1.30;1.10;;;25.20;59.70;;;;;;5015469;28;20037;-77
2023/08/21 08:13:07;;;;;;;1.73;1.20;;;25.10;53.50;;;;;;5017721;28;20132;-76
2023/08/21 08:15:34;;;;;;;1.33;1.20;;;25.10;54.70;;;;;;5019951;28;20167;-76
2023/08/21 08:18:01;;;;;;;1.50;1.40;;;25.10;55.20;;;;;;5018318;28;20042;-77
2023/08/21 08:20:27;;;;;;;2.97;1.30;;;25.20;55.60;;;;;;5032781;28;20494;-79
2023/08/21 08:22:53;;;;;;;2.00;1.23;;;25.20;54.80;;;;;;5017783;28;20037;-79
2023/08/21 08:25:20;;;;;;;3.05;1.58;;;25.20;54.90;;;;;;5033299;28;20079;-76
2023/08/21 08:27:46;;;;;;;1.20;1.10;;;25.20;56.30;;;;;;5017276;28;20073;-77
2023/08/21 08:30:12;;;;;;;2.58;1.45;;;25.20;55.60;;;;;;5017728;28;20030;-79
2023/08/21 08:32:44;;;;;;;2.08;1.38;;;25.20;56.00;;;;;;5016433;28;20030;-81
2023/08/21 08:35:13;;;;;;;1.95;1.40;;;25.20;56.70;;;;;;5016205;28;20445;-74
2023/08/21 08:37:40;;;;;;;1.63;1.40;;;25.20;58.40;;;;;;5031955;28;20026;-75
2023/08/21 08:40:07;;;;;;;3.08;1.50;;;25.20;59.10;;;;;;5017327;28;20042;-80
2023/08/21 08:42:35;;;;;;;2.25;1.60;;;25.30;59.90;;;;;;5017292;28;20029;-78
2023/08/21 08:45:03;;;;;;;2.15;1.15;;;25.40;60.80;;;;;;5032635;28;20038;-80
2023/08/21 08:47:36;;;;;;;3.47;1.40;;;25.40;61.60;;;;;;5016929;28;20452;-78
2023/08/21 08:50:08;;;;;;;2.03;1.23;;;25.40;58.80;;;;;;5016998;28;20124;-83
2023/08/21 08:52:39;;;;;;;1.83;1.35;;;25.40;59.00;;;;;;5017085;28;20390;-83
2023/08/21 08:55:08;;;;;;;1.88;1.58;;;25.50;58.70;;;;;;5017536;28;20706;-76
2023/08/21 08:57:36;;;;;;;2.40;1.10;;;25.50;58.90;;;;;;5016472;28;20112;-77
2023/08/21 09:00:06;;;;;;;1.30;1.20;;;25.40;56.90;;;;;;5015040;28;20029;-75
2023/08/21 09:02:34;;;;;;;3.38;1.90;;;25.30;57.50;;;;;;5016446;28;20057;-82
2023/08/21 09:05:00;;;;;;;2.22;1.80;;;25.20;58.60;;;;;;5015713;28;20080;-79
2023/08/21 09:07:26;;;;;;;2.60;1.70;;;25.30;58.60;;;;;;5017688;28;20037;-85
2023/08/21 09:09:52;;;;;;;3.80;1.98;;;25.20;58.30;;;;;;5016554;28;20046;-85
2023/08/21 09:12:25;;;;;;;4.40;1.70;;;25.20;56.80;;;;;;5017576;28;20033;-88
2023/08/21 09:14:51;;;;;;;3.00;1.70;;;25.20;58.10;;;;;;5018670;28;20034;-88
2023/08/21 09:17:17;;;;;;;7.55;1.55;;;25.10;56.50;;;;;;5017122;28;20406;-85
2023/08/21 09:19:44;;;;;;;4.50;1.45;;;25.10;57.70;;;;;;5017471;28;20520;-86
2023/08/21 09:22:12;;;;;;;3.17;1.88;;;25.00;56.50;;;;;;5015042;28;20124;-85
2023/08/21 09:24:39;;;;;;;4.85;2.10;;;25.00;56.70;;;;;;5015614;28;20037;-81
2023/08/21 09:27:14;;;;;;;5.05;1.95;;;25.10;57.30;;;;;;5015558;28;20087;-79
2023/08/21 09:29:41;;;;;;;2.10;1.25;;;25.00;56.10;;;;;;5014040;28;20060;-83
2023/08/21 09:32:07;;;;;;;3.75;1.55;;;24.70;52.30;;;;;;5012831;28;20513;-83
2023/08/21 09:34:38;;;;;;;1.70;1.40;;;24.60;54.20;;;;;;5014207;28;20053;-83
2023/08/21 09:37:08;;;;;;;1.75;1.20;;;24.60;54.10;;;;;;5015242;28;20044;-84
2023/08/21 09:39:36;;;;;;;1.58;1.23;;;24.40;53.80;;;;;;5015253;28;20060;-83
2023/08/21 09:42:07;;;;;;;3.30;1.35;;;24.40;54.40;;;;;;5016663;28;20049;-84
2023/08/21 09:44:43;;;;;;;3.60;1.40;;;24.60;56.00;;;;;;5015312;28;20471;-82
2023/08/21 09:47:11;;;;;;;2.22;1.13;;;24.60;55.80;;;;;;5031774;28;20104;-84
2023/08/21 09:49:39;;;;;;;1.77;1.40;;;24.60;54.20;;;;;;5014103;28;20575;-80
2023/08/21 09:52:07;;;;;;;1.80;1.45;;;24.50;53.20;;;;;;5016418;28;20038;-81
2023/08/21 09:54:55;;;;;;;1.38;1.08;;;24.40;53.40;;;;;;5015154;28;20048;-84
2023/08/21 09:57:22;;;;;;;1.75;1.20;;;24.50;54.50;;;;;;5015158;28;21491;-83
2023/08/21 09:59:54;;;;;;;2.47;1.30;;;24.50;53.60;;;;;;5016822;28;20127;-85
2023/08/21 10:02:22;;;;;;;3.63;1.70;;;24.30;52.60;;;;;;5015194;28;20452;-83
2023/08/21 10:04:52;;;;;;;1.23;1.10;;;24.20;53.00;;;;;;5016055;28;20045;-83
2023/08/21 10:07:22;;;;;;;3.63;1.35;;;24.30;54.40;;;;;;5031320;28;20075;-83
2023/08/21 10:09:49;;;;;;;1.48;1.20;;;24.30;54.20;;;;;;5016239;28;20034;-84
2023/08/21 10:12:16;;;;;;;9.30;8.30;;;24.30;54.80;;;;;;5014782;28;20034;-84
2023/08/21 10:14:42;;;;;;;4.25;3.00;;;24.40;54.60;;;;;;5014308;28;20037;-82
2023/08/21 10:17:08;;;;;;;3.13;1.80;;;24.40;54.30;;;;;;5015652;28;20041;-83
2023/08/21 10:19:35;;;;;;;2.08;1.10;;;24.40;53.40;;;;;;5015824;28;20075;-84
2023/08/21 10:22:03;;;;;;;2.05;1.40;;;24.20;52.20;;;;;;5015868;28;20038;-80
2023/08/21 10:24:38;;;;;;;2.55;1.50;;;24.20;53.30;;;;;;5015204;28;20423;-84
2023/08/21 10:27:06;;;;;;;1.38;1.27;;;24.30;54.50;;;;;;5014536;28;20060;-83
2023/08/21 10:29:32;;;;;;;2.72;1.20;;;24.40;55.30;;;;;;5014570;28;20030;-84
2023/08/21 10:32:05;;;;;;;1.50;1.40;;;24.50;56.10;;;;;;5015879;28;20069;-80
2023/08/21 10:34:33;;;;;;;1.77;1.67;;;24.50;55.10;;;;;;5014416;28;20125;-83
2023/08/21 10:37:10;;;;;;;1.55;1.40;;;24.50;54.80;;;;;;5014582;28;20297;-83
2023/08/21 10:39:37;;;;;;;2.65;1.38;;;24.50;54.70;;;;;;5029997;28;20038;-84
2023/08/21 10:42:09;;;;;;;2.95;1.20;;;24.50;54.10;;;;;;5016046;28;20095;-79
2023/08/21 10:44:51;;;;;;;2.50;1.25;;;24.40;53.00;;;;;;5014377;28;20086;-80
2023/08/21 10:47:23;;;;;;;1.88;1.17;;;24.30;52.40;;;;;;5013996;28;20038;-75
2023/08/21 10:49:53;;;;;;;3.38;1.60;;;24.20;52.20;;;;;;5014040;28;20034;-77
2023/08/21 10:52:28;;;;;;;1.98;1.60;;;24.20;52.70;;;;;;5028566;28;20042;-75
2023/08/21 10:54:58;;;;;;;1.63;1.20;;;24.30;54.00;;;;;;5013200;28;20120;-79
2023/08/21 10:57:26;;;;;;;3.50;1.80;;;24.30;54.50;;;;;;5011698;28;20348;-80
2023/08/21 10:59:54;;;;;;;2.35;1.40;;;24.40;55.10;;;;;;5011406;28;20037;-78
2023/08/21 11:02:21;;;;;;;6.68;1.48;;;24.40;54.40;;;;;;5009648;28;20409;-79
2023/08/21 11:04:49;;;;;;;1.45;1.25;;;24.40;55.20;;;;;;5009158;28;20048;-81
2023/08/21 11:07:15;;;;;;;3.17;1.80;;;24.40;54.20;;;;;;5011447;28;20025;-78
2023/08/21 11:09:41;;;;;;;2.33;1.20;;;24.30;53.10;;;;;;5012188;28;20527;-78
2023/08/21 11:12:09;;;;;;;1.33;1.23;;;24.30;52.70;;;;;;5011948;28;20576;-78
2023/08/21 11:14:35;;;;;;;2.08;1.30;;;24.30;53.90;;;;;;5011009;28;20064;-80
2023/08/21 11:17:01;;;;;;;1.40;1.20;;;24.40;54.50;;;;;;5011877;28;20044;-80
2023/08/21 11:19:31;;;;;;;1.23;1.13;;;24.30;53.70;;;;;;5011308;28;20069;-80
2023/08/21 11:22:00;;;;;;;2.72;1.50;;;24.30;53.80;;;;;;5011946;28;20058;-77
2023/08/21 11:24:38;;;;;;;1.63;1.45;;;24.30;54.10;;;;;;5010294;28;20556;-77
2023/08/21 11:27:09;;;;;;;1.33;1.20;;;24.40;54.10;;;;;;5012143;28;20447;-80
2023/08/21 11:29:38;;;;;;;1.30;1.20;;;24.40;54.30;;;;;;5011449;28;20072;-80
2023/08/21 11:32:10;;;;;;;1.95;1.20;;;24.40;54.20;;;;;;5011804;28;20500;-77
2023/08/21 11:34:37;;;;;;;1.40;1.20;;;24.40;55.20;;;;;;5011742;28;20079;-78
2023/08/21 11:37:05;;;;;;;2.45;1.20;;;24.40;54.60;;;;;;5009868;28;20484;-79
2023/08/21 11:39:54;;;;;;;2.85;1.23;;;24.40;54.50;;;;;;5008235;28;20088;-78
2023/08/21 11:42:30;;;;;;;1.40;1.20;;;24.40;54.80;;;;;;5010089;28;20048;-77
2023/08/21 11:44:57;;;;;;;1.65;1.27;;;24.40;54.60;;;;;;5010013;28;20037;-79
2023/08/21 11:47:23;;;;;;;1.42;1.33;;;24.40;55.40;;;;;;5011874;28;20026;-78
2023/08/21 11:49:50;;;;;;;4.70;1.55;;;24.50;54.70;;;;;;5010629;28;20034;-80
2023/08/21 11:52:21;;;;;;;1.25;1.15;;;24.40;54.60;;;;;;5011811;28;20077;-78
2023/08/21 11:54:51;;;;;;;1.40;1.20;;;24.40;53.10;;;;;;5012738;28;20041;-78
2023/08/21 11:57:18;;;;;;;2.67;1.10;;;24.30;52.40;;;;;;5011833;28;20657;-78
2023/08/21 11:59:53;;;;;;;2.38;1.20;;;24.30;52.90;;;;;;5012036;28;20539;-79
2023/08/21 12:02:27;;;;;;;3.83;1.10;;;24.20;52.50;;;;;;5014203;28;20485;-76
2023/08/21 12:05:05;;;;;;;2.75;1.35;;;24.20;52.70;;;;;;5010587;28;20049;-77
2023/08/21 12:07:33;;;;;;;1.10;1.00;;;24.30;52.80;;;;;;5010192;28;20034;-78
2023/08/21 12:09:59;;;;;;;3.33;1.33;;;24.20;53.70;;;;;;5009286;28;20038;-77
2023/08/21 12:12:25;;;;;;;2.35;1.20;;;24.30;53.90;;;;;;5011471;28;20037;-79
2023/08/21 12:14:51;;;;;;;1.35;1.00;;;24.30;54.10;;;;;;5010262;28;20038;-78
2023/08/21 12:17:19;;;;;;;2.35;1.10;;;24.40;54.60;;;;;;5011670;28;20037;-78
2023/08/21 12:19:44;;;;;;;1.70;1.27;;;24.40;54.20;;;;;;5010815;28;20038;-78
2023/08/21 12:22:12;;;;;;;1.77;1.20;;;24.40;53.60;;;;;;5010530;28;20034;-78
2023/08/21 12:24:38;;;;;;;2.25;1.15;;;24.40;52.80;;;;;;5010396;28;20646;-74
2023/08/21 12:27:07;;;;;;;1.17;0.95;;;24.40;52.70;;;;;;5013306;28;20026;-79
2023/08/21 12:29:33;;;;;;;4.72;1.10;;;24.40;53.10;;;;;;5011667;28;20042;-80
2023/08/21 12:31:59;;;;;;;2.22;1.33;;;24.40;53.50;;;;;;5010502;28;20057;-80
2023/08/21 12:34:25;;;;;;;1.23;1.10;;;24.40;53.00;;;;;;5011227;28;20046;-82
2023/08/21 12:36:51;;;;;;;3.85;1.48;;;24.40;53.10;;;;;;5010526;28;20065;-78
2023/08/21 12:39:18;;;;;;;2.65;1.13;;;24.40;53.40;;;;;;5013199;28;20034;-79
2023/08/21 12:41:43;;;;;;;1.75;1.30;;;24.40;54.10;;;;;;5028408;28;20029;-79
2023/08/21 12:44:10;;;;;;;4.38;1.52;;;24.50;54.40;;;;;;5012510;28;20038;-77
2023/08/21 12:46:36;;;;;;;1.33;0.90;;;24.50;54.60;;;;;;5013764;28;20052;-81
2023/08/21 12:49:03;;;;;;;0.90;0.85;;;24.50;54.20;;;;;;5012382;28;20690;-84
2023/08/21 12:51:29;;;;;;;4.97;1.40;;;24.50;55.10;;;;;;5015359;28;20041;-86